createdAt,value
2023-04-08T00:03:39.223Z,15.13
2023-04-08T00:08:38.110Z,12.88
2023-04-08T00:13:36.953Z,12.68
2023-04-08T00:18:38.187Z,13.05
2023-04-08T00:23:36.984Z,15.48
2023-04-08T00:28:36.417Z,12.43
2023-04-08T00:33:35.726Z,13.10
2023-04-08T00:38:34.598Z,17.02
2023-04-08T00:43:33.322Z,14.20
2023-04-08T00:48:32.345Z,17.48
2023-04-08T00:53:32.106Z,14.85
2023-04-08T00:58:31.241Z,16.38
2023-04-08T01:04:16.428Z,13.50
2023-04-08T01:09:19.398Z,16.52
2023-04-08T01:14:23.732Z,19.30
2023-04-08T01:19:35.318Z,17.88
2023-04-08T01:24:39.107Z,17.38
2023-04-08T01:29:39.527Z,19.52
2023-04-08T01:34:41.613Z,13.90
2023-04-08T01:39:41.719Z,14.98
2023-04-08T01:44:41.449Z,15.75
2023-04-08T01:49:41.502Z,16.65
2023-04-08T01:54:40.512Z,17.40
2023-04-08T01:59:41.177Z,16.73
2023-04-08T02:04:40.127Z,15.70
2023-04-08T02:09:39.094Z,13.57
2023-04-08T02:14:38.440Z,13.98
2023-04-08T02:20:03.513Z,13.20
2023-04-08T02:25:05.523Z,12.63
2023-04-08T02:30:07.021Z,13.88
2023-04-08T02:35:07.038Z,13.35
2023-04-08T02:40:26.099Z,13.05
2023-04-08T02:45:30.073Z,14.73
2023-04-08T02:50:29.694Z,14.25
2023-04-08T02:55:28.502Z,11.68
2023-04-08T03:00:27.493Z,12.63
2023-04-08T03:05:27.127Z,9.63
2023-04-08T03:10:26.047Z,11.27
2023-04-08T03:15:24.876Z,8.63
2023-04-08T03:20:23.602Z,9.50
2023-04-08T03:25:22.415Z,8.73
2023-04-08T03:30:21.435Z,8.65
2023-04-08T03:35:20.642Z,11.52
2023-04-08T03:40:19.987Z,7.63
2023-04-08T03:45:18.856Z,7.60
2023-04-08T03:50:17.749Z,10.05
2023-04-08T03:55:16.623Z,10.57
2023-04-08T04:00:15.987Z,10.15
2023-04-08T04:05:17.112Z,11.02
2023-04-08T04:10:16.047Z,8.77
2023-04-08T04:15:15.100Z,7.53
2023-04-08T04:20:14.079Z,7.38
2023-04-08T04:25:12.871Z,8.50
2023-04-08T04:30:15.415Z,7.78
2023-04-08T04:35:14.207Z,8.88
2023-04-08T04:40:13.180Z,7.18
2023-04-08T04:45:12.642Z,7.65
2023-04-08T04:50:11.559Z,8.02
2023-04-08T04:55:10.488Z,7.78
2023-04-08T05:00:10.343Z,6.72
2023-04-08T05:05:09.473Z,7.03
2023-04-08T05:10:08.686Z,8.70
2023-04-08T05:15:07.962Z,8.13
2023-04-08T05:20:07.373Z,6.80
2023-04-08T05:25:06.723Z,6.93
2023-04-08T05:30:06.227Z,7.60
2023-04-08T05:35:05.477Z,6.50
2023-04-08T05:40:04.873Z,7.43
2023-04-08T05:45:04.231Z,8.93
2023-04-08T05:50:03.000Z,7.30
2023-04-08T05:55:01.838Z,6.22
2023-04-08T06:00:00.707Z,5.35
2023-04-08T06:04:59.627Z,7.93
2023-04-08T06:09:58.502Z,7.10
2023-04-08T06:14:57.361Z,6.95
2023-04-08T06:19:56.145Z,7.10
2023-04-08T06:24:54.967Z,7.80
2023-04-08T06:29:53.802Z,8.05
2023-04-08T06:34:52.576Z,9.07
2023-04-08T06:39:51.512Z,7.68
2023-04-08T06:44:50.514Z,6.53
2023-04-08T06:49:49.371Z,9.13
2023-04-08T06:54:48.114Z,8.32
2023-04-08T06:59:46.981Z,7.93
2023-04-08T07:04:47.009Z,11.30
2023-04-08T07:09:46.832Z,8.27
2023-04-08T07:14:45.707Z,7.93
2023-04-08T07:19:44.596Z,9.30
2023-04-08T07:24:45.743Z,10.15
2023-04-08T07:29:44.612Z,9.18
2023-04-08T07:34:43.319Z,11.88
2023-04-08T07:39:42.203Z,11.27
2023-04-08T07:44:40.935Z,13.45
2023-04-08T07:49:39.853Z,9.35
2023-04-08T07:54:38.628Z,10.40
2023-04-08T07:59:37.406Z,11.45
2023-04-08T08:04:36.490Z,10.82
2023-04-08T08:09:35.665Z,9.55
2023-04-08T08:14:34.458Z,11.02
2023-04-08T08:19:33.200Z,9.98
2023-04-08T08:24:32.068Z,10.05
2023-04-08T08:29:30.789Z,10.23
2023-04-08T08:34:29.923Z,11.05
2023-04-08T08:39:28.797Z,10.68
2023-04-08T08:44:27.900Z,9.90
2023-04-08T08:49:26.806Z,9.10
2023-04-08T08:54:26.202Z,9.65
2023-04-08T08:59:25.570Z,9.88
2023-04-08T09:04:24.459Z,8.02
2023-04-08T09:09:25.787Z,9.68
2023-04-08T09:14:27.348Z,9.23
2023-04-08T09:19:26.690Z,11.07
2023-04-08T09:24:32.079Z,10.02
2023-04-08T09:29:33.492Z,10.90
2023-04-08T09:34:34.485Z,11.88
2023-04-08T09:39:33.560Z,11.23
2023-04-08T09:44:34.681Z,11.25
2023-04-08T09:49:55.309Z,9.68
2023-04-08T09:55:06.816Z,10.10
2023-04-08T10:00:14.033Z,11.10
2023-04-08T10:05:14.625Z,11.65
2023-04-08T10:10:13.756Z,14.13
2023-04-08T10:15:26.698Z,13.57
2023-04-08T10:20:34.754Z,13.45
2023-04-08T10:25:45.377Z,13.88
2023-04-08T10:30:47.819Z,15.73
2023-04-08T10:36:01.016Z,11.70
2023-04-08T10:40:59.797Z,12.32
2023-04-08T10:45:58.703Z,12.90
2023-04-08T10:51:05.120Z,11.07
2023-04-08T10:56:13.490Z,11.25
2023-04-08T11:01:13.488Z,10.75
2023-04-08T11:06:12.472Z,14.00
2023-04-08T11:11:12.077Z,11.45
2023-04-08T11:16:18.302Z,12.82
2023-04-08T11:21:18.032Z,13.02
2023-04-08T11:26:17.192Z,15.70
2023-04-08T11:31:16.217Z,12.10
2023-04-08T11:36:17.938Z,13.82
2023-04-08T11:41:17.538Z,15.73
2023-04-08T11:46:17.206Z,16.17
2023-04-08T11:51:16.148Z,16.90
2023-04-08T11:56:18.597Z,15.70
2023-04-08T12:01:17.783Z,18.27
2023-04-08T12:06:16.601Z,18.63
2023-04-08T12:11:20.019Z,17.95
2023-04-08T12:16:20.147Z,20.58
2023-04-08T12:21:18.964Z,19.17
2023-04-08T12:26:18.191Z,19.95
2023-04-08T12:31:17.122Z,19.70
2023-04-08T12:36:15.865Z,22.08
2023-04-08T12:41:14.777Z,21.50
2023-04-08T12:46:13.526Z,18.50
2023-04-08T12:51:12.740Z,21.40
2023-04-08T12:56:11.612Z,18.38
2023-04-08T13:01:10.502Z,19.77
2023-04-08T13:06:09.321Z,20.40
2023-04-08T13:11:08.758Z,19.48
2023-04-08T13:16:07.774Z,18.83
2023-04-08T13:21:06.867Z,15.48
2023-04-08T13:26:06.683Z,15.85
2023-04-08T13:31:05.488Z,15.50
2023-04-08T13:36:04.727Z,15.63
2023-04-08T13:41:04.179Z,16.55
2023-04-08T13:46:02.919Z,16.15
2023-04-08T13:51:01.708Z,14.55
2023-04-08T13:56:00.617Z,17.60
2023-04-08T14:00:59.305Z,14.50
2023-04-08T14:06:00.368Z,14.15
2023-04-08T14:11:00.805Z,15.18
2023-04-08T14:16:02.223Z,12.70
2023-04-08T14:21:01.120Z,14.90
2023-04-08T14:26:01.564Z,15.77
2023-04-08T14:31:00.556Z,15.00
2023-04-08T14:35:59.893Z,15.60
2023-04-08T14:40:58.756Z,16.50
2023-04-08T14:45:57.980Z,18.00
2023-04-08T14:50:57.450Z,16.88
2023-04-08T14:55:56.688Z,16.13
2023-04-08T15:00:55.773Z,18.30
2023-04-08T15:05:55.847Z,15.88
2023-04-08T15:10:54.770Z,16.58
2023-04-08T15:15:53.568Z,15.95
2023-04-08T15:20:52.614Z,15.27
2023-04-08T15:25:51.374Z,17.42
2023-04-08T15:30:50.403Z,16.98
2023-04-08T15:35:49.585Z,17.33
2023-04-08T15:40:48.509Z,20.80
2023-04-08T15:45:48.234Z,20.52
2023-04-08T15:50:47.209Z,19.40
2023-04-08T15:55:46.114Z,20.13
2023-04-08T16:00:44.859Z,24.10
2023-04-08T16:05:43.841Z,21.05
2023-04-08T16:10:42.737Z,21.90
2023-04-08T16:15:41.656Z,20.00
2023-04-08T16:20:40.558Z,21.17
2023-04-08T16:25:39.396Z,19.70
2023-04-08T16:30:38.367Z,19.58
2023-04-08T16:35:37.457Z,19.88
2023-04-08T16:40:39.267Z,18.95
2023-04-08T16:45:39.082Z,19.40
2023-04-08T16:50:39.070Z,18.08
2023-04-08T16:55:38.043Z,20.00
2023-04-08T17:00:36.785Z,19.00
2023-04-08T17:05:35.572Z,17.70
2023-04-08T17:10:35.020Z,21.13
2023-04-08T17:15:35.687Z,21.35
2023-04-08T17:20:34.426Z,19.00
2023-04-08T17:25:33.226Z,20.63
2023-04-08T17:30:32.049Z,20.98
2023-04-08T17:35:31.527Z,19.38
2023-04-08T17:40:30.618Z,20.83
2023-04-08T17:45:29.950Z,19.67
2023-04-08T17:50:28.844Z,19.90
2023-04-08T17:55:27.792Z,22.02
2023-04-08T18:00:27.696Z,22.33
2023-04-08T18:05:27.297Z,19.10
2023-04-08T18:10:26.114Z,19.95
2023-04-08T18:15:25.235Z,20.52
2023-04-08T18:20:24.112Z,20.05
2023-04-08T18:25:23.558Z,23.65
2023-04-08T18:30:22.342Z,19.27
2023-04-08T18:35:21.244Z,18.65
2023-04-08T18:40:20.135Z,23.65
2023-04-08T18:45:18.837Z,23.17
2023-04-08T18:50:17.769Z,20.02
2023-04-08T18:55:16.840Z,21.30
2023-04-08T19:00:15.936Z,23.13
2023-04-08T19:05:14.770Z,19.80
2023-04-08T19:10:13.481Z,25.88
2023-04-08T19:15:13.663Z,22.83
2023-04-08T19:20:12.452Z,22.92
2023-04-08T19:25:11.290Z,25.33
2023-04-08T19:30:10.344Z,20.98
2023-04-08T19:35:12.658Z,23.83
2023-04-08T19:40:11.633Z,24.20
2023-04-08T19:45:11.335Z,24.55
2023-04-08T19:50:11.251Z,25.10
2023-04-08T19:55:13.028Z,28.67
2023-04-08T20:00:14.134Z,26.27
2023-04-08T20:05:16.209Z,27.75
2023-04-08T20:10:15.158Z,28.40
2023-04-08T20:15:24.018Z,25.85
2023-04-08T20:20:24.403Z,24.20
2023-04-08T20:25:23.256Z,25.90
2023-04-08T20:30:22.855Z,22.83
2023-04-08T20:35:22.138Z,23.65
2023-04-08T20:40:21.053Z,23.05
2023-04-08T20:45:19.900Z,24.00
2023-04-08T20:50:18.833Z,22.27
2023-04-08T20:55:17.815Z,5.95
2023-04-08T21:00:17.303Z,20.45
2023-04-08T21:05:16.439Z,19.17
2023-04-08T21:10:17.534Z,20.73
2023-04-08T21:15:16.326Z,21.45
2023-04-08T21:20:15.428Z,22.38
2023-04-08T21:25:14.462Z,24.20
2023-04-08T21:30:13.216Z,23.67
2023-04-08T21:35:11.953Z,25.65
2023-04-08T21:40:11.291Z,24.70
2023-04-08T21:45:10.844Z,26.35
2023-04-08T21:50:09.732Z,27.48
2023-04-08T21:55:09.369Z,22.27
2023-04-08T22:00:13.283Z,23.20
2023-04-08T22:05:14.832Z,26.45
2023-04-08T22:10:13.723Z,28.35
2023-04-08T22:15:12.795Z,21.80
2023-04-08T22:20:12.060Z,22.83
2023-04-08T22:25:11.185Z,24.52
2023-04-08T22:30:10.547Z,26.55
2023-04-08T22:35:09.887Z,25.27
2023-04-08T22:40:09.134Z,21.73
2023-04-08T22:45:08.197Z,23.45
2023-04-08T22:50:07.459Z,27.10
2023-04-08T22:55:07.158Z,27.42
2023-04-08T23:00:06.767Z,26.83
2023-04-08T23:05:06.186Z,26.35
2023-04-08T23:10:05.562Z,26.67
2023-04-08T23:15:04.924Z,24.98
2023-04-08T23:20:04.134Z,23.67
2023-04-08T23:25:02.876Z,24.40
2023-04-08T23:30:05.593Z,22.50
2023-04-08T23:35:04.705Z,21.90
2023-04-08T23:40:03.722Z,24.52
2023-04-08T23:45:02.473Z,24.95
2023-04-08T23:50:01.358Z,23.85
2023-04-08T23:55:00.362Z,25.17
2023-04-08T23:59:59.054Z,22.13
